Aeroporto :
LOGIN :

Iscrizione | Disclaimer

   EN    FR    IT 

 










Sommario :    VFR   VFR Marginale   IFR   IFR Intensivo   IFR Molto Intensivo
Visibilità : 
Base nubi : 
>= 8 km
>= 3000ft
5 / 8 km
1000 / 3000 ft
1500m / 5 km
500 / 1000 ft
800 / 1500m
200 / 500 ft
< 800m
< 200 ft
Simboli :   Temporali  Nebbia  Neve Forte  Precipitazioni Forti  Vento > 20 kt
SIGMETs :   Varie  Temporali  Ghiacco  Turbolenza  Onda orograficha  Ceneri Vulcaniche







- Altitudine del aeroporto : 265 ft


ETSH - Holzdorf AB

ULTIMO METAR :
  • 202320Z 06002KT 7000 SCT250 11/11 Q1001 WHT

METARs OBSOLETI :
  • 202220Z 08003KT 8000 SCT250 12/11 Q1002 BLU+
  • 202200Z 07003KT 8000 FEW060 SCT250 12/11 Q1002 BLU+FCST CANCEL
  • 202120Z 09002KT 9000 FEW060 SCT250 12/12 Q1001 BLU+BLU+ BECMG WHT

TAF AMD TAF ETSH
Valido dal 20 a 17 ore il 21 a 02 ore UTC


202128Z 2017/2102 VRB03KT 9999 NSW FEW020 SCT050 BKN100
BECMG 2019/2021 VRB03KT 5000 BR SCT040
PROB30 2021/2102 VRB01KT 2000 BR BKN004 CANCEL 2200
Nessun NOTAM noto per questo aeroporto.
1 SIGMET conosciuto per la FIR Bremen (EDWW) :
 
Temporali affogati
EDWW SIGMET 12 VALID 202120/210000 EDZF
EDWW BREMEN FIR EMBD TS FCST WI N5315 E01125 - N5200 E01129 - N5124 E01014 - N5127 E00905 - N5254 E00855 - N5315 E01125 TOP FL340 MOV SSW NC=



MetMap, La meteo Aeronautica in un colpo d'occhio ! - Copyright ORBIFLY Dicembre 2007 - Disclaimer

ORBIFLY MET'MAP TEAM :

Programmazione e sviluppo : Alexandra Zaïnal
Concezione e sviluppo : Baudouin d'Aumeries
Co-Programmazione e sviluppo : Marc-Olivier Méhu
Supporto tecnico e logistico : Manuel Goepfert
Aiuto per la traduzione : Arnaldo La Scala

Contatto : metmap@orbifly.com




FONTI E CREDITI :

   NOAA